ADDS METAR Data INFO
IDs: Format: Raw Decoded Include TAF

Data at: 0525 UTC 19 Jan 2018

EGPH 190520Z 25009KT CAVOK 01/M00 Q0999
EGPH 190450Z 24009KT 9999 FEW014 01/M00 Q0999
EGPH 190420Z 24013KT 9999 FEW013 01/M00 Q0999
EGPH 190350Z 23013KT 9999 BKN011TCU 01/00 Q0999
EGPH 190320Z 24009KT 9999 BKN012 00/M01 Q0999
EGPH 190250Z 23011KT 9999 FEW014 01/M01 Q0999
EGPH 190220Z 24013KT CAVOK 01/M00 Q0999
EGPH 190150Z 26008KT 9999 FEW009 01/00 Q0999
EGPH 190120Z 24011KT 9999 FEW010 01/M00 Q0999
EGPH 190050Z 25010KT CAVOK 01/M00 Q0999
EGPH 190020Z 24009KT 9999 FEW013 01/M00 Q0999
EGPH 182320Z 24007KT 9999 -RA NSC 01/M00 Q0999
EGPH 182250Z 25010KT 9999 -RA FEW049TCU 01/00 Q0999
EGPH 182220Z 24011KT CAVOK 01/M00 Q0999
EGPH 182150Z 23011KT 9999 FEW027 01/M01 Q0999
EGPH 182120Z 24009KT 9999 SCT028 01/M01 Q0999
EGPH 182050Z 25009KT CAVOK 01/M00 Q0999
EGPH 182020Z 25008KT CAVOK 01/M00 Q0998
EGPH 181950Z 25007KT CAVOK 01/M00 Q0998
EGPH 181920Z 26007KT CAVOK 02/00 Q0998
EGPH 181850Z 26009KT CAVOK 02/00 Q0997
EGPH 181820Z 26008KT CAVOK 02/00 Q0997
EGPH 181750Z 26008KT CAVOK 02/00 Q0997
EGPH 181720Z 26009KT CAVOK 02/00 Q0997
EGPH 181650Z 25009KT 9999 FEW014 02/01 Q0997
EGPH 181620Z 25009KT 9999 FEW014 02/01 Q0996
EGPH 181550Z 25010KT 9999 SCT008 02/00 Q0996
EGPH 181520Z 26007KT 9999 FEW008 02/01 Q0996
EGPH 181450Z 24009KT 9999 SCT008 03/01 Q0996
EGPH 181350Z 24010KT 9999 FEW014 03/02 Q0995
EGPH 181320Z 24010KT 9999 -RA FEW012 SCT018 03/02 Q0995
EGPH 181250Z 24010KT 9999 -RA FEW014 SCT025 BKN042 03/02 Q0995
EGPH 181220Z 25008KT 9999 VCSH FEW026 SCT035 04/01 Q0995
EGPH 181150Z 25009KT 9999 SCT034 04/01 Q0995
EGPH 181050Z 24009KT 9999 FEW015 03/01 Q0995
EGPH 181020Z 25007KT 9999 FEW016 03/01 Q0994
EGPH 180950Z 24006KT 9999 FEW016 02/01 Q0994
EGPH 180920Z 23007KT 9999 FEW016 02/00 Q0994
EGPH 180850Z 24006KT 9999 FEW015 02/00 Q0994
EGPH 180820Z 25006KT 9999 FEW016 02/00 Q0993
EGPH 180750Z 23005KT 9999 SCT024 02/00 Q0993
EGPH 180720Z 24008KT 9999 SCT023 02/00 Q0992
EGPH 180650Z 24008KT 9999 BKN048 01/00 Q0992
EGPH 180620Z 24005KT CAVOK 01/00 Q0992
EGPH 180550Z 24004KT CAVOK 01/00 Q0992
EGPH 180520Z 24008KT CAVOK 01/M00 Q0991
EGPH 180450Z 25008KT 9999 FEW009 01/00 Q0991
EGPH 180420Z 25006KT 9999 BKN009 01/01 Q0990
EGPH 180350Z 26004KT 9999 BKN009 01/01 Q0990
EGPH 180320Z 24005KT 9999 FEW012 SCT037 01/00 Q0989
EGPH 180250Z 25004KT 9999 SCT015 01/01 Q0989
EGPH 180220Z 22003KT 9999 FEW008 01/00 Q0988
EGPH 180150Z VRB02KT 9999 FEW007 SCT027 01/00 Q0988
EGPH 180120Z 01002KT 9999 FEW007 01/00 Q0988
EGPH 180050Z VRB02KT 9999 -RA OVC047 02/01 Q0988
EGPH 180020Z 03001KT 9999 OVC049 02/00 Q0988
EGPH 172350Z 24005KT CAVOK 02/00 Q0989
EGPH 172320Z 23009KT CAVOK 02/00 Q0989
EGPH 172250Z 23008KT CAVOK 02/00 Q0990
EGPH 172220Z 24006KT CAVOK 02/00 Q0991
EGPH 172150Z 24006KT 9999 FEW020 02/00 Q0991
EGPH 172120Z 23007KT 9999 FEW017 02/00 Q0992
EGPH 172050Z 23011KT 9999 FEW014 02/00 Q0993
EGPH 172020Z 25008KT 220V290 9999 FEW020 02/00 Q0993
EGPH 171950Z 22010KT CAVOK 02/00 Q0994
EGPH 171920Z 24007KT 9999 FEW025 01/M00 Q0994
EGPH 171850Z 27005KT 9999 FEW023 02/M00 Q0994
EGPH 171820Z 27007KT 9999 -RA FEW022 SCT035 03/M00 Q0995
EGPH 171750Z 25009KT 9999 FEW045 02/M00 Q0995